sensor_id;sensor_type;location;lat;lon;timestamp;P1;durP1;ratioP1;P2;durP2;ratioP2
51566;SDS011;37657;53.182;5.638;2023-03-01T00:01:41;25.30;;;10.75;;
51566;SDS011;37657;53.182;5.638;2023-03-01T00:04:06;107.13;;;16.60;;
51566;SDS011;37657;53.182;5.638;2023-03-01T00:06:32;44.65;;;13.38;;
51566;SDS011;37657;53.182;5.638;2023-03-01T00:08:57;84.63;;;15.48;;
51566;SDS011;37657;53.182;5.638;2023-03-01T00:13:54;89.60;;;12.07;;
51566;SDS011;37657;53.182;5.638;2023-03-01T00:16:23;176.88;;;20.27;;
51566;SDS011;37657;53.182;5.638;2023-03-01T00:18:55;43.08;;;9.23;;
51566;SDS011;37657;53.182;5.638;2023-03-01T00:21:21;120.80;;;22.80;;
51566;SDS011;37657;53.182;5.638;2023-03-01T00:23:47;85.20;;;13.00;;
51566;SDS011;37657;53.182;5.638;2023-03-01T00:26:14;53.30;;;12.25;;
51566;SDS011;37657;53.182;5.638;2023-03-01T00:28:41;12.93;;;7.10;;
51566;SDS011;37657;53.182;5.638;2023-03-01T00:31:09;30.25;;;11.13;;
51566;SDS011;37657;53.182;5.638;2023-03-01T00:33:36;100.55;;;16.15;;
51566;SDS011;37657;53.182;5.638;2023-03-01T00:36:02;133.07;;;19.75;;
51566;SDS011;37657;53.182;5.638;2023-03-01T00:38:28;161.30;;;18.67;;
51566;SDS011;37657;53.182;5.638;2023-03-01T00:40:54;73.18;;;16.33;;
51566;SDS011;37657;53.182;5.638;2023-03-01T00:43:20;39.42;;;12.80;;
51566;SDS011;37657;53.182;5.638;2023-03-01T00:45:46;71.28;;;13.68;;
51566;SDS011;37657;53.182;5.638;2023-03-01T00:48:12;137.90;;;17.52;;
51566;SDS011;37657;53.182;5.638;2023-03-01T00:50:37;263.90;;;21.90;;
51566;SDS011;37657;53.182;5.638;2023-03-01T00:53:03;224.43;;;24.05;;
51566;SDS011;37657;53.182;5.638;2023-03-01T00:55:30;176.30;;;19.17;;
51566;SDS011;37657;53.182;5.638;2023-03-01T00:57:56;357.10;;;25.55;;
51566;SDS011;37657;53.182;5.638;2023-03-01T01:00:21;248.07;;;22.55;;
51566;SDS011;37657;53.182;5.638;2023-03-01T01:02:47;298.00;;;25.23;;
51566;SDS011;37657;53.182;5.638;2023-03-01T01:05:13;385.95;;;29.27;;
51566;SDS011;37657;53.182;5.638;2023-03-01T01:07:39;209.35;;;20.77;;
51566;SDS011;37657;53.182;5.638;2023-03-01T01:10:05;339.02;;;25.52;;
51566;SDS011;37657;53.182;5.638;2023-03-01T01:12:31;221.88;;;21.10;;
51566;SDS011;37657;53.182;5.638;2023-03-01T01:14:57;274.58;;;19.60;;
51566;SDS011;37657;53.182;5.638;2023-03-01T01:17:23;163.07;;;17.88;;
51566;SDS011;37657;53.182;5.638;2023-03-01T01:19:49;168.32;;;17.55;;
51566;SDS011;37657;53.182;5.638;2023-03-01T01:22:14;184.88;;;17.55;;
51566;SDS011;37657;53.182;5.638;2023-03-01T01:24:40;121.50;;;14.05;;
51566;SDS011;37657;53.182;5.638;2023-03-01T01:27:06;164.02;;;17.05;;
51566;SDS011;37657;53.182;5.638;2023-03-01T01:29:32;128.32;;;14.20;;
51566;SDS011;37657;53.182;5.638;2023-03-01T01:31:57;232.10;;;20.00;;
51566;SDS011;37657;53.182;5.638;2023-03-01T01:34:23;132.80;;;19.02;;
51566;SDS011;37657;53.182;5.638;2023-03-01T01:36:50;174.18;;;20.10;;
51566;SDS011;37657;53.182;5.638;2023-03-01T01:39:18;281.90;;;21.60;;
51566;SDS011;37657;53.182;5.638;2023-03-01T01:41:44;260.67;;;20.67;;
51566;SDS011;37657;53.182;5.638;2023-03-01T01:49:28;108.13;;;13.18;;
51566;SDS011;37657;53.182;5.638;2023-03-01T01:52:03;62.80;;;14.93;;
51566;SDS011;37657;53.182;5.638;2023-03-01T01:54:53;120.03;;;19.27;;
51566;SDS011;37657;53.182;5.638;2023-03-01T01:57:21;174.95;;;18.20;;
51566;SDS011;37657;53.182;5.638;2023-03-01T01:59:52;98.75;;;14.57;;
51566;SDS011;37657;53.182;5.638;2023-03-01T02:02:21;51.67;;;12.13;;
51566;SDS011;37657;53.182;5.638;2023-03-01T02:04:47;79.30;;;15.18;;
51566;SDS011;37657;53.182;5.638;2023-03-01T02:07:16;55.28;;;13.48;;
51566;SDS011;37657;53.182;5.638;2023-03-01T02:09:46;77.05;;;12.63;;
51566;SDS011;37657;53.182;5.638;2023-03-01T02:12:17;76.93;;;15.32;;
51566;SDS011;37657;53.182;5.638;2023-03-01T02:14:44;113.32;;;16.15;;
51566;SDS011;37657;53.182;5.638;2023-03-01T02:17:11;118.13;;;15.70;;
51566;SDS011;37657;53.182;5.638;2023-03-01T02:22:32;195.10;;;18.70;;
51566;SDS011;37657;53.182;5.638;2023-03-01T02:27:58;184.75;;;19.75;;
51566;SDS011;37657;53.182;5.638;2023-03-01T02:30:31;122.63;;;16.27;;
51566;SDS011;37657;53.182;5.638;2023-03-01T02:32:57;215.18;;;23.77;;
51566;SDS011;37657;53.182;5.638;2023-03-01T02:35:27;191.25;;;18.65;;
51566;SDS011;37657;53.182;5.638;2023-03-01T02:37:56;142.77;;;17.48;;
51566;SDS011;37657;53.182;5.638;2023-03-01T02:40:25;126.72;;;16.83;;
51566;SDS011;37657;53.182;5.638;2023-03-01T02:42:55;239.88;;;20.80;;
51566;SDS011;37657;53.182;5.638;2023-03-01T02:45:23;164.75;;;17.08;;
51566;SDS011;37657;53.182;5.638;2023-03-01T02:47:50;158.80;;;18.38;;
51566;SDS011;37657;53.182;5.638;2023-03-01T02:53:04;225.48;;;20.60;;
51566;SDS011;37657;53.182;5.638;2023-03-01T02:55:35;427.83;;;28.88;;
51566;SDS011;37657;53.182;5.638;2023-03-01T02:58:02;215.02;;;23.55;;
51566;SDS011;37657;53.182;5.638;2023-03-01T03:00:30;373.65;;;26.23;;
51566;SDS011;37657;53.182;5.638;2023-03-01T03:03:00;252.63;;;20.83;;
51566;SDS011;37657;53.182;5.638;2023-03-01T03:05:27;215.50;;;22.58;;
51566;SDS011;37657;53.182;5.638;2023-03-01T03:07:54;247.95;;;20.98;;
51566;SDS011;37657;53.182;5.638;2023-03-01T03:10:22;151.55;;;19.00;;
51566;SDS011;37657;53.182;5.638;2023-03-01T03:12:53;164.43;;;21.25;;
51566;SDS011;37657;53.182;5.638;2023-03-01T03:15:21;347.10;;;31.45;;
51566;SDS011;37657;53.182;5.638;2023-03-01T03:17:47;351.42;;;28.02;;
51566;SDS011;37657;53.182;5.638;2023-03-01T03:20:15;395.98;;;32.08;;
51566;SDS011;37657;53.182;5.638;2023-03-01T03:22:44;170.15;;;17.02;;
51566;SDS011;37657;53.182;5.638;2023-03-01T03:25:11;251.43;;;21.25;;
51566;SDS011;37657;53.182;5.638;2023-03-01T03:27:37;289.30;;;21.85;;
51566;SDS011;37657;53.182;5.638;2023-03-01T03:30:05;244.48;;;26.73;;
51566;SDS011;37657;53.182;5.638;2023-03-01T03:32:34;260.10;;;30.67;;
51566;SDS011;37657;53.182;5.638;2023-03-01T03:35:01;225.07;;;21.42;;
51566;SDS011;37657;53.182;5.638;2023-03-01T03:37:35;377.83;;;32.00;;
51566;SDS011;37657;53.182;5.638;2023-03-01T03:40:20;264.05;;;24.05;;
51566;SDS011;37657;53.182;5.638;2023-03-01T03:42:46;340.52;;;33.58;;
51566;SDS011;37657;53.182;5.638;2023-03-01T03:45:13;179.70;;;20.67;;
51566;SDS011;37657;53.182;5.638;2023-03-01T03:47:38;167.38;;;30.38;;
51566;SDS011;37657;53.182;5.638;2023-03-01T03:50:04;111.63;;;16.63;;
51566;SDS011;37657;53.182;5.638;2023-03-01T03:52:30;123.63;;;20.33;;
51566;SDS011;37657;53.182;5.638;2023-03-01T03:54:55;141.52;;;18.02;;
51566;SDS011;37657;53.182;5.638;2023-03-01T03:57:21;62.25;;;15.25;;
51566;SDS011;37657;53.182;5.638;2023-03-01T03:59:46;87.72;;;21.13;;
51566;SDS011;37657;53.182;5.638;2023-03-01T04:02:12;126.00;;;22.10;;
51566;SDS011;37657;53.182;5.638;2023-03-01T04:04:37;201.00;;;31.10;;
51566;SDS011;37657;53.182;5.638;2023-03-01T04:07:03;230.60;;;26.92;;
51566;SDS011;37657;53.182;5.638;2023-03-01T04:09:28;278.73;;;34.28;;
51566;SDS011;37657;53.182;5.638;2023-03-01T04:11:55;284.92;;;36.65;;
51566;SDS011;37657;53.182;5.638;2023-03-01T04:14:20;267.15;;;37.00;;
51566;SDS011;37657;53.182;5.638;2023-03-01T04:16:46;315.90;;;37.20;;
51566;SDS011;37657;53.182;5.638;2023-03-01T04:19:12;248.15;;;29.35;;
51566;SDS011;37657;53.182;5.638;2023-03-01T04:21:37;316.92;;;31.55;;
51566;SDS011;37657;53.182;5.638;2023-03-01T04:24:03;275.80;;;29.05;;
51566;SDS011;37657;53.182;5.638;2023-03-01T04:26:29;270.02;;;27.10;;
51566;SDS011;37657;53.182;5.638;2023-03-01T04:28:55;270.10;;;28.38;;
51566;SDS011;37657;53.182;5.638;2023-03-01T04:31:20;153.43;;;17.73;;
51566;SDS011;37657;53.182;5.638;2023-03-01T04:33:47;100.72;;;12.55;;
51566;SDS011;37657;53.182;5.638;2023-03-01T04:36:18;293.77;;;21.40;;
51566;SDS011;37657;53.182;5.638;2023-03-01T04:38:45;182.65;;;21.90;;
51566;SDS011;37657;53.182;5.638;2023-03-01T04:41:12;137.43;;;15.80;;
51566;SDS011;37657;53.182;5.638;2023-03-01T04:43:39;160.43;;;15.27;;
51566;SDS011;37657;53.182;5.638;2023-03-01T04:46:05;151.25;;;17.77;;
51566;SDS011;37657;53.182;5.638;2023-03-01T04:48:34;144.48;;;16.92;;
51566;SDS011;37657;53.182;5.638;2023-03-01T04:51:01;95.05;;;12.70;;
51566;SDS011;37657;53.182;5.638;2023-03-01T04:53:27;80.82;;;10.70;;
51566;SDS011;37657;53.182;5.638;2023-03-01T04:55:54;77.55;;;11.95;;
51566;SDS011;37657;53.182;5.638;2023-03-01T04:58:25;109.85;;;15.80;;
51566;SDS011;37657;53.182;5.638;2023-03-01T05:00:52;63.50;;;10.57;;
51566;SDS011;37657;53.182;5.638;2023-03-01T05:03:18;59.88;;;11.05;;
51566;SDS011;37657;53.182;5.638;2023-03-01T05:05:45;61.50;;;8.73;;
51566;SDS011;37657;53.182;5.638;2023-03-01T05:08:12;107.30;;;14.02;;
51566;SDS011;37657;53.182;5.638;2023-03-01T05:10:42;142.38;;;19.58;;
51566;SDS011;37657;53.182;5.638;2023-03-01T05:13:11;187.85;;;19.70;;
51566;SDS011;37657;53.182;5.638;2023-03-01T05:15:38;352.48;;;39.03;;
51566;SDS011;37657;53.182;5.638;2023-03-01T05:18:04;213.07;;;27.52;;
51566;SDS011;37657;53.182;5.638;2023-03-01T05:20:36;224.73;;;27.25;;
51566;SDS011;37657;53.182;5.638;2023-03-01T05:23:03;235.10;;;26.20;;
51566;SDS011;37657;53.182;5.638;2023-03-01T05:25:30;445.00;;;40.13;;
51566;SDS011;37657;53.182;5.638;2023-03-01T05:27:58;325.08;;;32.15;;
51566;SDS011;37657;53.182;5.638;2023-03-01T05:30:29;438.92;;;38.75;;
51566;SDS011;37657;53.182;5.638;2023-03-01T05:32:58;167.95;;;21.35;;
51566;SDS011;37657;53.182;5.638;2023-03-01T05:35:24;542.35;;;48.85;;
51566;SDS011;37657;53.182;5.638;2023-03-01T05:37:50;556.75;;;45.15;;
51566;SDS011;37657;53.182;5.638;2023-03-01T05:40:17;220.55;;;23.05;;
51566;SDS011;37657;53.182;5.638;2023-03-01T05:42:47;488.92;;;37.38;;
51566;SDS011;37657;53.182;5.638;2023-03-01T05:45:15;369.27;;;34.33;;
51566;SDS011;37657;53.182;5.638;2023-03-01T05:47:42;244.82;;;26.85;;
51566;SDS011;37657;53.182;5.638;2023-03-01T05:52:39;246.43;;;21.10;;
51566;SDS011;37657;53.182;5.638;2023-03-01T05:55:05;78.68;;;11.82;;
51566;SDS011;37657;53.182;5.638;2023-03-01T05:57:31;141.45;;;13.18;;
51566;SDS011;37657;53.182;5.638;2023-03-01T05:59:56;179.27;;;14.27;;
51566;SDS011;37657;53.182;5.638;2023-03-01T06:02:22;186.57;;;16.00;;
51566;SDS011;37657;53.182;5.638;2023-03-01T06:04:48;154.57;;;15.30;;
51566;SDS011;37657;53.182;5.638;2023-03-01T06:07:13;42.85;;;8.90;;
51566;SDS011;37657;53.182;5.638;2023-03-01T06:09:39;101.80;;;12.10;;
51566;SDS011;37657;53.182;5.638;2023-03-01T06:12:04;116.88;;;16.58;;
51566;SDS011;37657;53.182;5.638;2023-03-01T06:14:30;212.68;;;16.83;;
51566;SDS011;37657;53.182;5.638;2023-03-01T06:16:55;205.10;;;17.83;;
51566;SDS011;37657;53.182;5.638;2023-03-01T06:19:21;149.35;;;13.93;;
51566;SDS011;37657;53.182;5.638;2023-03-01T06:21:46;184.23;;;15.63;;
51566;SDS011;37657;53.182;5.638;2023-03-01T06:24:12;161.15;;;15.68;;
51566;SDS011;37657;53.182;5.638;2023-03-01T06:26:37;174.20;;;14.90;;
51566;SDS011;37657;53.182;5.638;2023-03-01T06:29:03;52.17;;;8.35;;
51566;SDS011;37657;53.182;5.638;2023-03-01T06:31:28;123.38;;;13.50;;
51566;SDS011;37657;53.182;5.638;2023-03-01T06:33:54;84.57;;;11.20;;
51566;SDS011;37657;53.182;5.638;2023-03-01T06:36:19;90.30;;;9.25;;
51566;SDS011;37657;53.182;5.638;2023-03-01T06:38:46;43.17;;;9.90;;
51566;SDS011;37657;53.182;5.638;2023-03-01T06:41:12;134.65;;;17.23;;
51566;SDS011;37657;53.182;5.638;2023-03-01T06:43:37;26.85;;;9.65;;
51566;SDS011;37657;53.182;5.638;2023-03-01T06:46:04;47.05;;;11.38;;
51566;SDS011;37657;53.182;5.638;2023-03-01T06:48:31;51.08;;;10.07;;
51566;SDS011;37657;53.182;5.638;2023-03-01T06:50:58;118.05;;;14.85;;
51566;SDS011;37657;53.182;5.638;2023-03-01T06:53:26;50.33;;;10.75;;
51566;SDS011;37657;53.182;5.638;2023-03-01T06:55:55;69.65;;;12.30;;
51566;SDS011;37657;53.182;5.638;2023-03-01T06:58:21;31.15;;;9.98;;
51566;SDS011;37657;53.182;5.638;2023-03-01T07:00:47;28.58;;;10.63;;
51566;SDS011;37657;53.182;5.638;2023-03-01T07:03:13;31.42;;;10.73;;
51566;SDS011;37657;53.182;5.638;2023-03-01T07:05:38;21.40;;;9.55;;
51566;SDS011;37657;53.182;5.638;2023-03-01T07:08:04;15.43;;;9.35;;
51566;SDS011;37657;53.182;5.638;2023-03-01T07:10:30;18.60;;;10.18;;
51566;SDS011;37657;53.182;5.638;2023-03-01T07:12:56;21.80;;;11.40;;
51566;SDS011;37657;53.182;5.638;2023-03-01T07:15:22;29.65;;;12.57;;
51566;SDS011;37657;53.182;5.638;2023-03-01T07:17:48;15.77;;;11.00;;
51566;SDS011;37657;53.182;5.638;2023-03-01T07:20:16;15.20;;;8.65;;
51566;SDS011;37657;53.182;5.638;2023-03-01T07:22:42;11.38;;;8.95;;
51566;SDS011;37657;53.182;5.638;2023-03-01T07:25:08;26.70;;;10.50;;
51566;SDS011;37657;53.182;5.638;2023-03-01T07:27:35;37.92;;;12.50;;
51566;SDS011;37657;53.182;5.638;2023-03-01T07:30:01;38.88;;;11.40;;
51566;SDS011;37657;53.182;5.638;2023-03-01T07:32:27;15.73;;;9.20;;
51566;SDS011;37657;53.182;5.638;2023-03-01T07:34:53;11.52;;;9.15;;
51566;SDS011;37657;53.182;5.638;2023-03-01T07:37:18;10.02;;;8.55;;
51566;SDS011;37657;53.182;5.638;2023-03-01T07:39:44;11.57;;;9.10;;
51566;SDS011;37657;53.182;5.638;2023-03-01T07:42:10;10.93;;;9.73;;
51566;SDS011;37657;53.182;5.638;2023-03-01T07:44:35;9.07;;;8.18;;
51566;SDS011;37657;53.182;5.638;2023-03-01T07:47:01;13.23;;;9.20;;
51566;SDS011;37657;53.182;5.638;2023-03-01T07:49:27;16.23;;;10.93;;
51566;SDS011;37657;53.182;5.638;2023-03-01T07:51:53;17.65;;;9.88;;
51566;SDS011;37657;53.182;5.638;2023-03-01T07:54:18;10.95;;;9.90;;
51566;SDS011;37657;53.182;5.638;2023-03-01T07:56:44;9.57;;;8.15;;
51566;SDS011;37657;53.182;5.638;2023-03-01T07:59:09;10.45;;;8.57;;
51566;SDS011;37657;53.182;5.638;2023-03-01T08:01:35;13.80;;;12.57;;
51566;SDS011;37657;53.182;5.638;2023-03-01T08:04:01;12.52;;;11.35;;
51566;SDS011;37657;53.182;5.638;2023-03-01T08:06:26;14.90;;;10.75;;
51566;SDS011;37657;53.182;5.638;2023-03-01T08:08:52;10.10;;;9.13;;
51566;SDS011;37657;53.182;5.638;2023-03-01T08:11:20;11.25;;;9.70;;
51566;SDS011;37657;53.182;5.638;2023-03-01T08:13:47;9.80;;;8.52;;
51566;SDS011;37657;53.182;5.638;2023-03-01T08:16:13;8.38;;;7.50;;
51566;SDS011;37657;53.182;5.638;2023-03-01T08:18:40;7.55;;;5.85;;
51566;SDS011;37657;53.182;5.638;2023-03-01T08:21:07;7.35;;;6.28;;
51566;SDS011;37657;53.182;5.638;2023-03-01T08:23:34;7.03;;;6.43;;
51566;SDS011;37657;53.182;5.638;2023-03-01T08:26:10;8.10;;;7.38;;
51566;SDS011;37657;53.182;5.638;2023-03-01T08:28:40;9.10;;;8.30;;
51566;SDS011;37657;53.182;5.638;2023-03-01T08:31:40;8.60;;;6.97;;
51566;SDS011;37657;53.182;5.638;2023-03-01T08:34:03;9.37;;;7.87;;
51566;SDS011;37657;53.182;5.638;2023-03-01T08:36:35;9.00;;;7.97;;
51566;SDS011;37657;53.182;5.638;2023-03-01T08:39:02;10.13;;;9.10;;
51566;SDS011;37657;53.182;5.638;2023-03-01T08:41:28;12.60;;;11.40;;
51566;SDS011;37657;53.182;5.638;2023-03-01T08:43:54;9.57;;;8.55;;
51566;SDS011;37657;53.182;5.638;2023-03-01T08:46:26;9.98;;;9.07;;
51566;SDS011;37657;53.182;5.638;2023-03-01T08:48:56;12.90;;;11.65;;
51566;SDS011;37657;53.182;5.638;2023-03-01T08:51:22;13.57;;;11.25;;
51566;SDS011;37657;53.182;5.638;2023-03-01T08:53:48;13.73;;;11.80;;
51566;SDS011;37657;53.182;5.638;2023-03-01T08:56:14;12.95;;;11.23;;
51566;SDS011;37657;53.182;5.638;2023-03-01T08:58:43;15.88;;;13.38;;
51566;SDS011;37657;53.182;5.638;2023-03-01T09:01:10;14.00;;;12.68;;
51566;SDS011;37657;53.182;5.638;2023-03-01T09:03:36;13.43;;;12.27;;
51566;SDS011;37657;53.182;5.638;2023-03-01T09:06:03;16.25;;;12.27;;
51566;SDS011;37657;53.182;5.638;2023-03-01T09:08:29;16.25;;;14.60;;
51566;SDS011;37657;53.182;5.638;2023-03-01T09:10:55;18.45;;;16.33;;
51566;SDS011;37657;53.182;5.638;2023-03-01T09:13:21;17.15;;;14.75;;
51566;SDS011;37657;53.182;5.638;2023-03-01T09:15:50;18.17;;;15.80;;
51566;SDS011;37657;53.182;5.638;2023-03-01T09:18:16;18.13;;;15.70;;
51566;SDS011;37657;53.182;5.638;2023-03-01T09:20:42;16.92;;;14.95;;
51566;SDS011;37657;53.182;5.638;2023-03-01T09:23:07;17.15;;;15.52;;
51566;SDS011;37657;53.182;5.638;2023-03-01T09:25:33;18.35;;;16.52;;
51566;SDS011;37657;53.182;5.638;2023-03-01T09:27:59;26.00;;;19.27;;
51566;SDS011;37657;53.182;5.638;2023-03-01T09:30:25;18.08;;;16.20;;
51566;SDS011;37657;53.182;5.638;2023-03-01T09:32:50;19.45;;;17.70;;
51566;SDS011;37657;53.182;5.638;2023-03-01T09:35:17;19.95;;;18.08;;
51566;SDS011;37657;53.182;5.638;2023-03-01T09:37:44;17.95;;;15.70;;
51566;SDS011;37657;53.182;5.638;2023-03-01T09:40:14;18.30;;;16.42;;
51566;SDS011;37657;53.182;5.638;2023-03-01T09:43:06;20.90;;;18.48;;
51566;SDS011;37657;53.182;5.638;2023-03-01T09:45:43;22.83;;;20.48;;
51566;SDS011;37657;53.182;5.638;2023-03-01T09:48:21;20.20;;;18.10;;
51566;SDS011;37657;53.182;5.638;2023-03-01T09:50:50;20.85;;;17.15;;
51566;SDS011;37657;53.182;5.638;2023-03-01T09:53:21;19.92;;;17.83;;
51566;SDS011;37657;53.182;5.638;2023-03-01T09:55:54;19.38;;;17.52;;
51566;SDS011;37657;53.182;5.638;2023-03-01T10:01:22;21.13;;;17.33;;
51566;SDS011;37657;53.182;5.638;2023-03-01T10:07:03;21.63;;;18.23;;
51566;SDS011;37657;53.182;5.638;2023-03-01T10:09:32;18.90;;;17.00;;
51566;SDS011;37657;53.182;5.638;2023-03-01T10:12:00;23.23;;;21.05;;
51566;SDS011;37657;53.182;5.638;2023-03-01T10:17:03;22.13;;;19.55;;
51566;SDS011;37657;53.182;5.638;2023-03-01T10:19:36;25.30;;;19.90;;
51566;SDS011;37657;53.182;5.638;2023-03-01T10:22:09;22.15;;;19.60;;
51566;SDS011;37657;53.182;5.638;2023-03-01T10:24:53;21.38;;;19.20;;
51566;SDS011;37657;53.182;5.638;2023-03-01T10:30:05;22.40;;;20.05;;
51566;SDS011;37657;53.182;5.638;2023-03-01T10:32:41;21.92;;;19.00;;
51566;SDS011;37657;53.182;5.638;2023-03-01T10:35:21;24.42;;;19.90;;
51566;SDS011;37657;53.182;5.638;2023-03-01T10:38:05;25.90;;;21.77;;
51566;SDS011;37657;53.182;5.638;2023-03-01T10:40:36;23.48;;;20.48;;
51566;SDS011;37657;53.182;5.638;2023-03-01T10:43:15;23.85;;;21.27;;
51566;SDS011;37657;53.182;5.638;2023-03-01T10:45:40;20.10;;;18.08;;
51566;SDS011;37657;53.182;5.638;2023-03-01T10:48:20;21.30;;;19.10;;
51566;SDS011;37657;53.182;5.638;2023-03-01T10:53:24;19.23;;;17.27;;
51566;SDS011;37657;53.182;5.638;2023-03-01T10:56:03;22.27;;;19.98;;
51566;SDS011;37657;53.182;5.638;2023-03-01T10:58:30;21.95;;;19.58;;
51566;SDS011;37657;53.182;5.638;2023-03-01T11:00:57;20.60;;;17.65;;
51566;SDS011;37657;53.182;5.638;2023-03-01T11:03:34;19.77;;;15.70;;
51566;SDS011;37657;53.182;5.638;2023-03-01T11:08:46;20.10;;;17.90;;
51566;SDS011;37657;53.182;5.638;2023-03-01T11:11:33;19.83;;;17.58;;
51566;SDS011;37657;53.182;5.638;2023-03-01T11:16:42;16.65;;;14.95;;
51566;SDS011;37657;53.182;5.638;2023-03-01T11:21:40;17.80;;;16.00;;
51566;SDS011;37657;53.182;5.638;2023-03-01T11:24:48;21.15;;;19.05;;
51566;SDS011;37657;53.182;5.638;2023-03-01T11:27:26;21.23;;;18.83;;
51566;SDS011;37657;53.182;5.638;2023-03-01T11:29:57;24.98;;;19.75;;
51566;SDS011;37657;53.182;5.638;2023-03-01T11:32:35;20.70;;;18.52;;
51566;SDS011;37657;53.182;5.638;2023-03-01T11:35:22;18.35;;;16.33;;
51566;SDS011;37657;53.182;5.638;2023-03-01T11:51:56;21.85;;;17.85;;
51566;SDS011;37657;53.182;5.638;2023-03-01T12:06:10;17.23;;;15.50;;
51566;SDS011;37657;53.182;5.638;2023-03-01T12:15:05;16.02;;;14.50;;
51566;SDS011;37657;53.182;5.638;2023-03-01T12:20:32;19.75;;;15.77;;
51566;SDS011;37657;53.182;5.638;2023-03-01T12:23:28;19.35;;;14.90;;
51566;SDS011;37657;53.182;5.638;2023-03-01T12:26:27;16.23;;;14.73;;
51566;SDS011;37657;53.182;5.638;2023-03-01T12:39:36;17.38;;;15.60;;
51566;SDS011;37657;53.182;5.638;2023-03-01T12:42:09;19.80;;;17.75;;
51566;SDS011;37657;53.182;5.638;2023-03-01T12:47:25;19.27;;;16.17;;
51566;SDS011;37657;53.182;5.638;2023-03-01T12:50:14;16.55;;;14.98;;
51566;SDS011;37657;53.182;5.638;2023-03-01T12:52:46;17.48;;;15.77;;
51566;SDS011;37657;53.182;5.638;2023-03-01T12:55:29;18.13;;;16.30;;
51566;SDS011;37657;53.182;5.638;2023-03-01T13:00:45;18.38;;;15.60;;
51566;SDS011;37657;53.182;5.638;2023-03-01T13:03:25;21.65;;;18.42;;
51566;SDS011;37657;53.182;5.638;2023-03-01T13:06:13;17.55;;;15.73;;
51566;SDS011;37657;53.182;5.638;2023-03-01T13:09:14;19.17;;;16.77;;
51566;SDS011;37657;53.182;5.638;2023-03-01T13:11:51;21.00;;;18.10;;
51566;SDS011;37657;53.182;5.638;2023-03-01T13:16:45;20.02;;;17.85;;
51566;SDS011;37657;53.182;5.638;2023-03-01T13:19:20;20.05;;;16.05;;
51566;SDS011;37657;53.182;5.638;2023-03-01T13:21:48;19.02;;;16.90;;
51566;SDS011;37657;53.182;5.638;2023-03-01T13:24:26;16.90;;;15.30;;
51566;SDS011;37657;53.182;5.638;2023-03-01T13:29:45;25.45;;;21.52;;
51566;SDS011;37657;53.182;5.638;2023-03-01T13:32:25;22.77;;;17.80;;
51566;SDS011;37657;53.182;5.638;2023-03-01T13:37:29;17.48;;;15.68;;
51566;SDS011;37657;53.182;5.638;2023-03-01T13:40:07;18.63;;;16.67;;
51566;SDS011;37657;53.182;5.638;2023-03-01T13:47:56;18.95;;;17.15;;
51566;SDS011;37657;53.182;5.638;2023-03-01T13:50:25;19.85;;;15.55;;
51566;SDS011;37657;53.182;5.638;2023-03-01T13:53:00;18.65;;;16.50;;
51566;SDS011;37657;53.182;5.638;2023-03-01T13:55:32;18.15;;;16.20;;
51566;SDS011;37657;53.182;5.638;2023-03-01T13:58:19;21.48;;;18.38;;
51566;SDS011;37657;53.182;5.638;2023-03-01T14:03:23;19.15;;;17.38;;
51566;SDS011;37657;53.182;5.638;2023-03-01T14:08:25;18.10;;;16.27;;
51566;SDS011;37657;53.182;5.638;2023-03-01T14:10:54;23.98;;;20.00;;
51566;SDS011;37657;53.182;5.638;2023-03-01T14:13:48;19.63;;;16.40;;
51566;SDS011;37657;53.182;5.638;2023-03-01T14:16:20;18.13;;;16.27;;
51566;SDS011;37657;53.182;5.638;2023-03-01T14:19:16;19.10;;;15.80;;
51566;SDS011;37657;53.182;5.638;2023-03-01T14:24:51;17.63;;;15.25;;
51566;SDS011;37657;53.182;5.638;2023-03-01T14:27:20;18.00;;;15.60;;
51566;SDS011;37657;53.182;5.638;2023-03-01T14:29:58;17.38;;;15.25;;
51566;SDS011;37657;53.182;5.638;2023-03-01T14:32:26;17.77;;;14.82;;
51566;SDS011;37657;53.182;5.638;2023-03-01T14:34:54;23.95;;;17.60;;
51566;SDS011;37657;53.182;5.638;2023-03-01T14:39:52;17.88;;;16.08;;
51566;SDS011;37657;53.182;5.638;2023-03-01T14:42:19;17.63;;;14.00;;
51566;SDS011;37657;53.182;5.638;2023-03-01T14:44:47;17.25;;;15.15;;
51566;SDS011;37657;53.182;5.638;2023-03-01T14:47:17;17.33;;;15.63;;
51566;SDS011;37657;53.182;5.638;2023-03-01T14:52:36;20.55;;;18.13;;
51566;SDS011;37657;53.182;5.638;2023-03-01T14:55:05;18.30;;;15.95;;
51566;SDS011;37657;53.182;5.638;2023-03-01T14:57:38;19.42;;;16.13;;
51566;SDS011;37657;53.182;5.638;2023-03-01T15:00:10;18.65;;;15.93;;
51566;SDS011;37657;53.182;5.638;2023-03-01T15:05:13;19.88;;;16.98;;
51566;SDS011;37657;53.182;5.638;2023-03-01T15:07:40;14.43;;;12.98;;
51566;SDS011;37657;53.182;5.638;2023-03-01T15:10:31;20.23;;;16.63;;
51566;SDS011;37657;53.182;5.638;2023-03-01T15:13:19;19.08;;;14.90;;
51566;SDS011;37657;53.182;5.638;2023-03-01T15:15:48;17.95;;;14.32;;
51566;SDS011;37657;53.182;5.638;2023-03-01T15:18:26;17.25;;;15.35;;
51566;SDS011;37657;53.182;5.638;2023-03-01T15:20:54;17.10;;;13.57;;
51566;SDS011;37657;53.182;5.638;2023-03-01T15:23:24;14.02;;;12.55;;
51566;SDS011;37657;53.182;5.638;2023-03-01T15:25:52;18.25;;;15.48;;
51566;SDS011;37657;53.182;5.638;2023-03-01T15:28:26;16.40;;;14.65;;
51566;SDS011;37657;53.182;5.638;2023-03-01T15:30:55;17.00;;;15.02;;
51566;SDS011;37657;53.182;5.638;2023-03-01T15:33:42;15.30;;;13.73;;
51566;SDS011;37657;53.182;5.638;2023-03-01T15:39:05;15.52;;;13.65;;
51566;SDS011;37657;53.182;5.638;2023-03-01T15:41:58;13.85;;;12.23;;
51566;SDS011;37657;53.182;5.638;2023-03-01T15:44:28;17.83;;;13.13;;
51566;SDS011;37657;53.182;5.638;2023-03-01T15:46:55;17.33;;;12.52;;
51566;SDS011;37657;53.182;5.638;2023-03-01T15:51:59;13.45;;;10.90;;
51566;SDS011;37657;53.182;5.638;2023-03-01T15:54:25;16.88;;;11.95;;
51566;SDS011;37657;53.182;5.638;2023-03-01T15:56:52;14.98;;;13.50;;
51566;SDS011;37657;53.182;5.638;2023-03-01T15:59:18;13.27;;;11.82;;
51566;SDS011;37657;53.182;5.638;2023-03-01T16:01:44;12.25;;;10.43;;
51566;SDS011;37657;53.182;5.638;2023-03-01T16:04:14;15.13;;;11.75;;
51566;SDS011;37657;53.182;5.638;2023-03-01T16:06:49;12.13;;;10.70;;
51566;SDS011;37657;53.182;5.638;2023-03-01T16:09:19;13.07;;;11.27;;
51566;SDS011;37657;53.182;5.638;2023-03-01T16:11:48;16.30;;;13.00;;
51566;SDS011;37657;53.182;5.638;2023-03-01T16:14:15;14.57;;;13.02;;
51566;SDS011;37657;53.182;5.638;2023-03-01T16:16:41;13.85;;;12.18;;
51566;SDS011;37657;53.182;5.638;2023-03-01T16:19:08;12.93;;;11.52;;
51566;SDS011;37657;53.182;5.638;2023-03-01T16:21:33;17.95;;;16.10;;
51566;SDS011;37657;53.182;5.638;2023-03-01T16:23:59;15.60;;;14.02;;
51566;SDS011;37657;53.182;5.638;2023-03-01T16:26:25;14.55;;;13.15;;
51566;SDS011;37657;53.182;5.638;2023-03-01T16:28:53;18.42;;;13.65;;
51566;SDS011;37657;53.182;5.638;2023-03-01T16:31:21;15.88;;;13.75;;
51566;SDS011;37657;53.182;5.638;2023-03-01T16:33:47;15.45;;;13.65;;
51566;SDS011;37657;53.182;5.638;2023-03-01T16:36:15;19.50;;;16.77;;
51566;SDS011;37657;53.182;5.638;2023-03-01T16:38:42;24.05;;;16.55;;